Time;durP1;ratioP1;P1;durP2;ratioP2;P2;SDS_P1;SDS_P2;PMS_P1;PMS_P2;Temp;Humidity;BMP_temperature;BMP_pressure;BME280_temperature;BME280_humidity;BME280_pressure;Samples;Min_cycle;Max_cycle;Signal;HPM_P1;HPM_P2
2022/01/12 00:02:06;;;;;;;;;;;1.00;86.80;;;;;;5024249;28;20259;-74
2022/01/12 00:04:32;;;;;;;;;;;1.00;87.70;;;;;;5022787;28;20016;-73
2022/01/12 00:06:57;;;;;;;;;;;1.00;88.20;;;;;;5022071;28;20085;-73
2022/01/12 00:09:23;;;;;;;;;;;1.00;89.00;;;;;;5035609;23;19922;-72
2022/01/12 00:11:49;;;;;;;;;;;1.00;88.10;;;;;;4988262;28;20205;-72
2022/01/12 00:14:14;;;;;;;;;;;1.00;88.70;;;;;;4992411;28;19936;-71
2022/01/12 00:16:46;;;;;;;;;;;0.90;88.60;;;;;;5000449;28;20112;-71
2022/01/12 00:19:11;;;;;;;;;;;1.00;88.20;;;;;;5011186;28;20487;-72
2022/01/12 00:21:37;;;;;;;;;;;1.00;87.40;;;;;;5004260;28;19910;-72
2022/01/12 00:24:03;;;;;;;;;;;1.00;87.40;;;;;;5003964;28;20093;-72
2022/01/12 00:34:26;;;;;;;;;;;1.00;86.10;;;;;;4992094;28;20255;-72
2022/01/12 00:36:52;;;;;;;;;;;0.90;86.30;;;;;;5001192;28;19910;-72
2022/01/12 00:39:18;;;;;;;;;;;0.90;86.60;;;;;;5003895;28;19910;-72
2022/01/12 00:41:43;;;;;;;;;;;0.90;86.50;;;;;;5003891;28;19973;-72
2022/01/12 00:44:10;;;;;;;;;;;0.80;86.70;;;;;;5003611;28;19917;-72
2022/01/12 00:46:37;;;;;;;;;;;0.60;88.30;;;;;;5002602;28;19910;-72
2022/01/12 00:49:03;;;;;;;;;;;0.60;89.20;;;;;;4986288;28;19910;-72
2022/01/12 00:51:31;;;;;;;;;;;0.50;89.90;;;;;;5003862;28;19933;-72
2022/01/12 00:53:57;;;;;;;;;;;0.50;90.10;;;;;;5002645;28;19921;-70
2022/01/12 00:56:23;;;;;;;;;;;0.40;90.20;;;;;;4984430;28;19969;-73
2022/01/12 00:58:49;;;;;;;;;;;0.50;89.70;;;;;;4985910;28;20234;-72
2022/01/12 01:01:15;;;;;;;;;;;0.40;89.70;;;;;;5003713;28;19910;-73
2022/01/12 01:03:40;;;;;;;;;;;0.40;89.40;;;;;;5002542;28;19910;-71
2022/01/12 01:06:11;;;;;;;;;;;0.40;89.80;;;;;;5003332;28;19910;-71
2022/01/12 01:08:37;;;;;;;;;;;0.40;90.00;;;;;;5003575;28;20117;-71
2022/01/12 01:11:03;;;;;;;;;;;0.30;90.10;;;;;;4986369;28;19909;-72
2022/01/12 01:13:35;;;;;;;;;;;0.30;90.20;;;;;;5003338;28;19984;-72
2022/01/12 01:16:12;;;;;;;;;;;0.30;90.30;;;;;;5002381;28;19910;-72
2022/01/12 01:26:51;;;;;;;;;;;0.30;90.30;;;;;;5002515;28;19989;-72
2022/01/12 01:29:17;;;;;;;;;;;0.30;90.40;;;;;;5002094;28;20276;-73
2022/01/12 01:31:44;;;;;;;;;;;0.10;90.70;;;;;;5002449;28;20205;-73
2022/01/12 01:34:12;;;;;;;;;;;0.10;91.10;;;;;;5002205;28;20132;-72
2022/01/12 01:36:49;;;;;;;;;;;0.00;91.40;;;;;;5003286;28;20208;-72
2022/01/12 01:39:17;;;;;;;;;;;0.00;91.50;;;;;;5002327;28;19909;-72
2022/01/12 01:41:47;;;;;;;;;;;-0.10;91.80;;;;;;5002295;28;19949;-72
2022/01/12 01:54:51;;;;;;;;;;;-0.30;92.30;;;;;;5001809;28;19937;-71
2022/01/12 01:57:16;;;;;;;;;;;-0.20;92.50;;;;;;5002046;28;19918;-71
2022/01/12 01:59:42;;;;;;;;;;;-0.20;92.60;;;;;;5001555;28;19913;-71
2022/01/12 02:02:08;;;;;;;;;;;-0.20;92.60;;;;;;5003173;28;20116;-71
2022/01/12 02:04:33;;;;;;;;;;;0.00;92.30;;;;;;5001746;28;19952;-72
2022/01/12 02:06:59;;;;;;;;;;;0.10;92.20;;;;;;5002641;28;19937;-71
2022/01/12 02:09:25;;;;;;;;;;;0.10;92.30;;;;;;5005388;28;19914;-72
2022/01/12 02:11:51;;;;;;;;;;;0.00;92.60;;;;;;5005420;28;19913;-71
2022/01/12 02:14:17;;;;;;;;;;;-0.10;92.50;;;;;;5006211;28;20189;-72
2022/01/12 02:17:21;;;;;;;;;;;-0.10;92.50;;;;;;5005267;28;19909;-71
2022/01/12 02:36:19;;;;;;;;;;;0.20;91.90;;;;;;5004137;28;19956;-71
2022/01/12 02:41:30;;;;;;;;;;;0.00;92.20;;;;;;5004994;28;19916;-72
2022/01/12 02:54:42;;;;;;;;;;;0.10;92.60;;;;;;5005690;28;19914;-72
2022/01/12 02:57:07;;;;;;;;;;;-0.10;92.70;;;;;;5005795;28;20108;-72
2022/01/12 02:59:33;;;;;;;;;;;0.10;92.20;;;;;;5004138;28;19916;-72
2022/01/12 03:02:27;;;;;;;;;;;0.20;92.00;;;;;;5004714;28;19913;-72
2022/01/12 03:05:03;;;;;;;;;;;0.20;91.80;;;;;;5005281;28;19973;-72
2022/01/12 03:07:35;;;;;;;;;;;0.30;91.40;;;;;;5004865;28;19980;-71
2022/01/12 03:10:03;;;;;;;;;;;0.40;91.00;;;;;;5005345;28;19914;-72
2022/01/12 03:12:28;;;;;;;;;;;0.40;91.00;;;;;;5004468;28;19916;-72
2022/01/12 03:14:54;;;;;;;;;;;0.40;91.40;;;;;;4987683;28;19961;-72
2022/01/12 03:17:20;;;;;;;;;;;0.40;91.00;;;;;;5005456;28;19910;-72
2022/01/12 03:19:46;;;;;;;;;;;0.40;91.20;;;;;;5004586;28;19941;-71
2022/01/12 03:22:12;;;;;;;;;;;0.30;91.60;;;;;;5005326;28;19917;-72
2022/01/12 03:24:38;;;;;;;;;;;0.30;91.60;;;;;;4987838;28;19917;-72
2022/01/12 03:27:05;;;;;;;;;;;0.30;91.00;;;;;;5005171;28;19910;-72
2022/01/12 03:29:31;;;;;;;;;;;0.30;91.10;;;;;;5004840;28;19949;-72
2022/01/12 03:31:58;;;;;;;;;;;0.10;91.50;;;;;;5005181;28;19913;-72
2022/01/12 03:34:27;;;;;;;;;;;0.00;91.80;;;;;;5004737;28;19914;-72
2022/01/12 03:37:15;;;;;;;;;;;-0.20;92.00;;;;;;5003785;28;19910;-72
2022/01/12 03:39:38;;;;;;;;;;;-0.30;92.00;;;;;;5004832;28;19910;-72
2022/01/12 03:42:04;;;;;;;;;;;-0.30;91.90;;;;;;5003951;28;19956;-72
2022/01/12 03:44:30;;;;;;;;;;;-0.30;92.00;;;;;;5004715;28;19910;-73
2022/01/12 03:46:56;;;;;;;;;;;-0.30;92.00;;;;;;5004949;28;20149;-72
2022/01/12 03:49:21;;;;;;;;;;;-0.40;92.20;;;;;;5004624;28;19972;-72
2022/01/12 03:51:47;;;;;;;;;;;-0.60;92.60;;;;;;5003719;28;19910;-72
2022/01/12 03:54:13;;;;;;;;;;;-0.70;92.80;;;;;;5004476;28;20113;-72
2022/01/12 03:56:39;;;;;;;;;;;-0.70;93.10;;;;;;5003468;28;19916;-72
2022/01/12 03:59:04;;;;;;;;;;;-0.90;93.40;;;;;;5003504;28;20275;-72
2022/01/12 04:01:30;;;;;;;;;;;-0.90;93.60;;;;;;5003509;28;19984;-72
2022/01/12 04:04:05;;;;;;;;;;;-1.00;93.80;;;;;;5003241;28;19970;-72
2022/01/12 04:09:23;;;;;;;;;;;-1.10;94.10;;;;;;5002243;28;19976;-72
2022/01/12 04:11:48;;;;;;;;;;;-1.10;94.30;;;;;;5004408;28;20216;-72
2022/01/12 04:14:14;;;;;;;;;;;-1.20;94.10;;;;;;5002767;28;19914;-72
2022/01/12 04:16:40;;;;;;;;;;;-1.20;94.20;;;;;;5004299;28;19981;-72
2022/01/12 04:19:06;;;;;;;;;;;-1.10;94.30;;;;;;5003680;28;20205;-72
2022/01/12 04:21:35;;;;;;;;;;;-1.00;94.00;;;;;;4980410;28;20220;-72
2022/01/12 04:24:00;;;;;;;;;;;-0.90;93.90;;;;;;4965113;29;19917;-72
2022/01/12 04:26:26;;;;;;;;;;;-1.00;93.80;;;;;;4991194;28;19910;-71
2022/01/12 04:28:52;;;;;;;;;;;-1.10;93.90;;;;;;5003715;28;19909;-71
2022/01/12 04:31:18;;;;;;;;;;;-1.10;94.00;;;;;;5002977;28;20197;-71
2022/01/12 04:33:44;;;;;;;;;;;-1.10;94.10;;;;;;5003680;28;19918;-72
2022/01/12 04:36:10;;;;;;;;;;;-1.20;94.30;;;;;;5001586;28;19910;-72
2022/01/12 04:38:37;;;;;;;;;;;-1.20;94.40;;;;;;5002469;28;20137;-71
2022/01/12 04:41:03;;;;;;;;;;;-1.20;94.40;;;;;;5002674;28;19909;-71
2022/01/12 04:43:29;;;;;;;;;;;-1.30;94.30;;;;;;4986602;28;19910;-72
2022/01/12 04:50:48;;;;;;;;;;;-1.30;94.10;;;;;;5002977;28;19910;-71
2022/01/12 04:53:14;;;;;;;;;;;-1.30;94.10;;;;;;5003275;28;19920;-71
2022/01/12 04:55:41;;;;;;;;;;;-1.30;93.90;;;;;;5002502;28;19970;-71
2022/01/12 04:58:06;;;;;;;;;;;-1.30;93.60;;;;;;5003370;28;19910;-72
2022/01/12 05:00:33;;;;;;;;;;;-1.20;93.20;;;;;;5002755;28;19918;-71
2022/01/12 05:13:38;;;;;;;;;;;-1.60;93.90;;;;;;5002500;28;20228;-71
2022/01/12 05:16:04;;;;;;;;;;;-1.60;94.10;;;;;;5002152;28;19910;-71
2022/01/12 05:18:33;;;;;;;;;;;-1.50;94.30;;;;;;5003292;28;19985;-71
2022/01/12 05:20:59;;;;;;;;;;;-1.50;94.40;;;;;;5003398;28;19910;-71
2022/01/12 05:23:25;;;;;;;;;;;-1.40;94.40;;;;;;5003107;28;19910;-70
2022/01/12 05:25:52;;;;;;;;;;;-1.40;94.20;;;;;;5003360;28;20137;-71
2022/01/12 05:28:21;;;;;;;;;;;-1.30;94.00;;;;;;5003360;28;19909;-71
2022/01/12 05:30:47;;;;;;;;;;;-1.30;93.60;;;;;;5003272;28;20258;-71
2022/01/12 05:33:13;;;;;;;;;;;-1.20;93.40;;;;;;4985697;28;19953;-71
2022/01/12 05:35:38;;;;;;;;;;;-1.10;93.30;;;;;;5002132;28;19910;-71
2022/01/12 05:38:05;;;;;;;;;;;-1.20;93.50;;;;;;5003306;28;19914;-71
2022/01/12 05:40:31;;;;;;;;;;;-1.20;93.80;;;;;;5002133;28;19917;-71
2022/01/12 05:42:59;;;;;;;;;;;-1.20;93.90;;;;;;5004350;28;19949;-71
2022/01/12 05:45:25;;;;;;;;;;;-1.20;93.90;;;;;;5006887;28;19933;-70
2022/01/12 05:50:17;;;;;;;;;;;-1.00;93.50;;;;;;5005880;28;19920;-72
2022/01/12 05:52:43;;;;;;;;;;;-1.00;93.50;;;;;;5006892;28;19910;-71
2022/01/12 05:55:09;;;;;;;;;;;-1.00;93.40;;;;;;5006352;28;19916;-71
2022/01/12 05:57:35;;;;;;;;;;;-1.00;93.50;;;;;;4989185;28;20094;-72
2022/01/12 06:00:00;;;;;;;;;;;-1.00;93.40;;;;;;4984857;28;19922;-72
2022/01/12 06:02:26;;;;;;;;;;;-1.00;93.30;;;;;;4986178;28;20120;-71
2022/01/12 06:04:52;;;;;;;;;;;-0.90;93.20;;;;;;4986688;28;19910;-71
2022/01/12 06:07:17;;;;;;;;;;;-0.80;92.90;;;;;;4998352;28;19984;-71
2022/01/12 06:09:43;;;;;;;;;;;-0.80;93.00;;;;;;4988770;28;19914;-72
2022/01/12 06:12:09;;;;;;;;;;;-0.80;93.00;;;;;;5006362;28;20116;-71
2022/01/12 06:14:35;;;;;;;;;;;-0.80;93.00;;;;;;5004927;28;19996;-72
2022/01/12 06:17:01;;;;;;;;;;;-0.80;92.50;;;;;;5006133;28;19933;-72
2022/01/12 06:19:26;;;;;;;;;;;-0.70;92.60;;;;;;5005972;28;19916;-70
2022/01/12 06:21:52;;;;;;;;;;;-0.60;92.00;;;;;;5006006;28;19969;-71
2022/01/12 06:24:18;;;;;;;;;;;-0.70;91.90;;;;;;5005741;28;20243;-72
2022/01/12 06:26:46;;;;;;;;;;;-0.60;91.80;;;;;;5006182;28;19948;-71
2022/01/12 06:31:38;;;;;;;;;;;-0.70;92.10;;;;;;5006028;28;19992;-72
2022/01/12 06:34:03;;;;;;;;;;;-0.70;92.00;;;;;;5005730;28;20324;-71
2022/01/12 06:36:29;;;;;;;;;;;-0.60;91.70;;;;;;5005545;28;19914;-71
2022/01/12 06:38:55;;;;;;;;;;;-0.60;91.60;;;;;;5005693;28;19910;-71
2022/01/12 06:41:20;;;;;;;;;;;-0.60;91.50;;;;;;5008784;28;19948;-70
2022/01/12 06:43:46;;;;;;;;;;;-0.70;91.80;;;;;;5006247;28;20003;-71
2022/01/12 06:46:14;;;;;;;;;;;-0.60;91.80;;;;;;5003246;28;19917;-71
2022/01/12 06:48:40;;;;;;;;;;;-0.60;91.60;;;;;;5004359;28;20243;-71
2022/01/12 06:51:06;;;;;;;;;;;-0.60;92.20;;;;;;5005686;28;19910;-72
2022/01/12 06:53:32;;;;;;;;;;;-0.70;92.00;;;;;;5003274;28;19944;-72
2022/01/12 06:55:58;;;;;;;;;;;-0.70;91.80;;;;;;5004274;28;19917;-72
2022/01/12 06:58:24;;;;;;;;;;;-0.50;91.60;;;;;;5004541;28;19976;-70
2022/01/12 07:00:50;;;;;;;;;;;-0.50;91.20;;;;;;5005686;28;20196;-72
2022/01/12 07:03:16;;;;;;;;;;;-0.50;91.20;;;;;;5005806;28;19910;-70
2022/01/12 07:05:41;;;;;;;;;;;-0.40;91.00;;;;;;5005134;28;19909;-71
2022/01/12 07:08:07;;;;;;;;;;;-0.40;91.10;;;;;;5005482;28;19910;-71
2022/01/12 07:10:33;;;;;;;;;;;-0.50;91.20;;;;;;5003812;28;19913;-71
2022/01/12 07:12:58;;;;;;;;;;;-0.60;91.50;;;;;;5003991;28;19918;-72
2022/01/12 07:15:24;;;;;;;;;;;-0.50;91.40;;;;;;5005150;28;19980;-71
2022/01/12 07:17:50;;;;;;;;;;;-0.50;91.20;;;;;;5004203;28;19910;-71
2022/01/12 07:20:16;;;;;;;;;;;-0.50;91.00;;;;;;5004001;28;19909;-71
2022/01/12 07:22:42;;;;;;;;;;;-0.50;91.00;;;;;;5005285;28;19984;-71
2022/01/12 07:25:07;;;;;;;;;;;-0.40;90.80;;;;;;5003591;28;19921;-71
2022/01/12 07:27:33;;;;;;;;;;;-0.40;90.50;;;;;;4984002;28;20117;-71
2022/01/12 07:30:00;;;;;;;;;;;-0.30;90.40;;;;;;4988470;28;19964;-72
2022/01/12 07:32:27;;;;;;;;;;;-0.40;90.40;;;;;;5003754;28;20086;-71
2022/01/12 07:34:53;;;;;;;;;;;-0.30;90.50;;;;;;5001891;28;19920;-71
2022/01/12 07:37:18;;;;;;;;;;;-0.30;90.60;;;;;;5004105;28;19914;-71
2022/01/12 07:39:44;;;;;;;;;;;-0.30;90.90;;;;;;5003466;28;19980;-71
2022/01/12 07:42:11;;;;;;;;;;;-0.20;90.60;;;;;;4987533;28;19910;-72
2022/01/12 07:44:37;;;;;;;;;;;-0.20;90.70;;;;;;5003398;28;20016;-71
2022/01/12 07:47:03;;;;;;;;;;;-0.10;90.50;;;;;;5003483;28;20189;-71
2022/01/12 07:49:29;;;;;;;;;;;0.00;90.30;;;;;;5003868;28;19914;-72
2022/01/12 07:51:55;;;;;;;;;;;0.00;90.10;;;;;;5003284;28;20166;-70
2022/01/12 07:54:20;;;;;;;;;;;0.00;90.10;;;;;;5001909;28;20224;-71
2022/01/12 07:56:46;;;;;;;;;;;0.00;89.90;;;;;;5004697;28;19921;-71
2022/01/12 07:59:12;;;;;;;;;;;0.00;89.60;;;;;;5004336;28;19910;-70
2022/01/12 08:01:37;;;;;;;;;;;-0.10;89.70;;;;;;5003600;28;20360;-70
2022/01/12 08:04:03;;;;;;;;;;;-0.20;90.40;;;;;;5003955;28;19910;-71
2022/01/12 08:06:29;;;;;;;;;;;-0.10;90.30;;;;;;5002676;28;19910;-70
2022/01/12 08:08:54;;;;;;;;;;;-0.10;90.40;;;;;;5004120;28;19941;-71
2022/01/12 08:11:20;;;;;;;;;;;0.00;90.30;;;;;;4985750;28;19917;-72
2022/01/12 08:13:46;;;;;;;;;;;0.00;90.40;;;;;;5004015;28;19914;-71
2022/01/12 08:16:12;;;;;;;;;;;0.00;90.00;;;;;;5002630;28;19994;-69
2022/01/12 08:18:38;;;;;;;;;;;0.00;90.20;;;;;;5003160;28;19932;-69
2022/01/12 08:21:05;;;;;;;;;;;0.00;90.00;;;;;;5004091;28;20201;-70
2022/01/12 08:23:31;;;;;;;;;;;0.10;89.70;;;;;;5004037;28;19910;-70
2022/01/12 08:25:57;;;;;;;;;;;0.10;89.20;;;;;;4984187;28;19910;-72
2022/01/12 08:28:23;;;;;;;;;;;0.00;90.00;;;;;;4983587;28;19917;-71
2022/01/12 08:30:48;;;;;;;;;;;0.00;90.20;;;;;;4999562;28;19968;-70
2022/01/12 08:33:15;;;;;;;;;;;0.10;90.00;;;;;;5003861;28;19913;-71
2022/01/12 08:35:41;;;;;;;;;;;0.10;90.10;;;;;;5002222;28;19910;-72
2022/01/12 08:38:07;;;;;;;;;;;0.20;90.00;;;;;;5003999;28;19910;-71
2022/01/12 08:40:33;;;;;;;;;;;0.30;89.50;;;;;;5001527;28;19910;-72
2022/01/12 08:42:58;;;;;;;;;;;0.30;89.50;;;;;;5003830;28;20331;-71
2022/01/12 08:45:24;;;;;;;;;;;0.40;89.50;;;;;;5002044;28;19987;-72
2022/01/12 08:47:50;;;;;;;;;;;0.40;88.80;;;;;;5003846;28;19909;-71
2022/01/12 08:50:16;;;;;;;;;;;0.50;88.60;;;;;;5002596;28;19933;-71
2022/01/12 08:52:44;;;;;;;;;;;0.50;87.90;;;;;;5002349;28;19917;-72
2022/01/12 08:55:15;;;;;;;;;;;0.60;87.80;;;;;;5002456;28;19969;-72
2022/01/12 08:57:41;;;;;;;;;;;0.70;86.50;;;;;;5003372;28;19909;-72
2022/01/12 09:00:07;;;;;;;;;;;0.70;87.30;;;;;;5003082;28;19948;-72
2022/01/12 09:02:33;;;;;;;;;;;0.60;87.70;;;;;;4998835;28;20145;-72
2022/01/12 09:04:58;;;;;;;;;;;0.60;87.50;;;;;;4983883;28;20196;-72
2022/01/12 09:07:24;;;;;;;;;;;0.80;87.50;;;;;;4998660;28;19980;-69
2022/01/12 09:09:50;;;;;;;;;;;0.90;85.40;;;;;;5003408;28;19913;-71
2022/01/12 09:12:15;;;;;;;;;;;0.80;85.30;;;;;;5003486;28;20094;-71
2022/01/12 09:14:41;;;;;;;;;;;0.80;84.70;;;;;;5002092;28;19913;-72
2022/01/12 09:17:16;;;;;;;;;;;0.70;85.40;;;;;;5003338;28;19917;-72
2022/01/12 09:19:41;;;;;;;;;;;0.80;84.80;;;;;;4995864;28;19911;-71
2022/01/12 09:22:07;;;;;;;;;;;0.70;85.20;;;;;;4999490;28;19910;-73
2022/01/12 09:24:33;;;;;;;;;;;0.60;85.90;;;;;;5007207;28;19988;-72
2022/01/12 09:26:58;;;;;;;;;;;0.70;85.40;;;;;;5007346;28;19917;-71
2022/01/12 09:29:24;;;;;;;;;;;0.70;84.60;;;;;;5007223;28;19909;-72
2022/01/12 09:31:50;;;;;;;;;;;0.60;85.00;;;;;;5007193;28;19933;-72
2022/01/12 09:34:15;;;;;;;;;;;0.60;85.60;;;;;;5006985;28;20113;-72
2022/01/12 09:36:41;;;;;;;;;;;0.60;86.70;;;;;;5006964;28;19973;-72
2022/01/12 09:39:08;;;;;;;;;;;0.60;86.80;;;;;;5006033;28;20251;-72
2022/01/12 09:41:34;;;;;;;;;;;0.60;86.80;;;;;;5006973;28;19917;-72
2022/01/12 09:44:00;;;;;;;;;;;0.60;87.40;;;;;;5006218;28;19910;-72
2022/01/12 09:46:28;;;;;;;;;;;0.70;87.40;;;;;;5005668;28;19909;-72
2022/01/12 09:48:59;;;;;;;;;;;0.70;86.50;;;;;;5004442;28;20240;-72
2022/01/12 09:51:25;;;;;;;;;;;0.80;85.80;;;;;;5004715;28;19910;-72
2022/01/12 09:53:51;;;;;;;;;;;1.00;84.90;;;;;;4972634;28;19920;-72
2022/01/12 09:56:22;;;;;;;;;;;1.20;84.60;;;;;;5004444;28;19976;-72
2022/01/12 09:58:50;;;;;;;;;;;1.20;83.80;;;;;;5006000;28;19916;-73
2022/01/12 10:01:29;;;;;;;;;;;1.40;83.00;;;;;;4989144;28;19914;-72
2022/01/12 10:04:11;;;;;;;;;;;1.40;83.30;;;;;;5005933;28;19917;-70
2022/01/12 10:06:41;;;;;;;;;;;1.30;84.10;;;;;;5004748;28;19984;-72
2022/01/12 10:09:07;;;;;;;;;;;1.50;84.00;;;;;;5004928;28;19913;-72
2022/01/12 10:11:33;;;;;;;;;;;1.50;83.80;;;;;;5003743;28;19950;-72
2022/01/12 10:14:00;;;;;;;;;;;1.50;83.40;;;;;;5003692;28;20240;-71
2022/01/12 10:16:26;;;;;;;;;;;1.50;84.00;;;;;;5003970;28;20282;-71
2022/01/12 10:19:00;;;;;;;;;;;1.50;83.20;;;;;;5005379;28;19932;-71
2022/01/12 10:21:26;;;;;;;;;;;1.60;83.50;;;;;;5005307;28;20133;-71
2022/01/12 10:24:05;;;;;;;;;;;1.60;83.00;;;;;;5003801;28;19917;-71
2022/01/12 10:26:41;;;;;;;;;;;1.80;82.20;;;;;;5004655;28;19910;-71
2022/01/12 10:29:11;;;;;;;;;;;1.90;82.20;;;;;;5003677;28;19909;-71
2022/01/12 10:31:44;;;;;;;;;;;1.90;80.90;;;;;;5002822;28;19914;-71
2022/01/12 10:34:10;;;;;;;;;;;1.90;81.10;;;;;;5003420;28;19921;-71
2022/01/12 10:36:40;;;;;;;;;;;1.90;81.70;;;;;;4986556;28;19917;-71
2022/01/12 10:39:10;;;;;;;;;;;2.00;80.20;;;;;;5002740;28;20093;-71
2022/01/12 10:41:35;;;;;;;;;;;2.00;81.50;;;;;;5003979;28;19910;-71
2022/01/12 10:44:02;;;;;;;;;;;2.10;79.50;;;;;;5003777;28;19914;-71
2022/01/12 10:46:29;;;;;;;;;;;2.20;80.50;;;;;;5003110;28;19910;-71
2022/01/12 10:48:55;;;;;;;;;;;2.20;80.70;;;;;;4986249;28;19933;-71
2022/01/12 10:51:25;;;;;;;;;;;2.30;79.80;;;;;;5002389;28;19910;-71
2022/01/12 10:54:00;;;;;;;;;;;2.60;77.40;;;;;;5003254;28;19925;-70
2022/01/12 10:56:26;;;;;;;;;;;3.00;76.50;;;;;;5003548;28;19909;-71
2022/01/12 10:58:52;;;;;;;;;;;3.50;73.90;;;;;;5003552;28;19973;-71
2022/01/12 11:01:19;;;;;;;;;;;3.90;70.30;;;;;;5003169;28;20069;-72
2022/01/12 11:03:45;;;;;;;;;;;4.40;68.40;;;;;;5002231;28;19948;-71
2022/01/12 11:06:11;;;;;;;;;;;4.90;64.70;;;;;;5003001;28;19913;-71
2022/01/12 11:08:38;;;;;;;;;;;5.30;63.20;;;;;;4936507;28;1907816;-71
2022/01/12 11:11:04;;;;;;;;;;;5.00;64.30;;;;;;5004292;28;19914;-71
2022/01/12 11:13:31;;;;;;;;;;;4.90;62.40;;;;;;5003721;28;20098;-72
2022/01/12 11:15:56;;;;;;;;;;;4.50;64.70;;;;;;5001900;28;20208;-71
2022/01/12 11:18:25;;;;;;;;;;;4.20;67.10;;;;;;5003080;28;19909;-72
2022/01/12 11:20:52;;;;;;;;;;;4.10;67.10;;;;;;4986827;28;20005;-70
2022/01/12 11:23:18;;;;;;;;;;;4.00;67.80;;;;;;5002524;28;19909;-71
2022/01/12 11:25:48;;;;;;;;;;;3.70;70.30;;;;;;5002539;28;19922;-71
2022/01/12 11:28:21;;;;;;;;;;;3.60;71.80;;;;;;5003885;28;19994;-72
2022/01/12 11:30:56;;;;;;;;;;;3.80;71.70;;;;;;5003866;28;20115;-72
2022/01/12 11:33:33;;;;;;;;;;;3.80;69.60;;;;;;5002163;28;20073;-72
2022/01/12 11:36:04;;;;;;;;;;;3.70;70.50;;;;;;5003576;28;20066;-72
2022/01/12 11:38:31;;;;;;;;;;;3.60;70.20;;;;;;4986546;28;19917;-72
2022/01/12 11:41:12;;;;;;;;;;;3.60;71.40;;;;;;5002804;28;19909;-73
2022/01/12 11:43:41;;;;;;;;;;;4.00;68.90;;;;;;5003766;28;19909;-72
2022/01/12 11:46:12;;;;;;;;;;;4.50;66.20;;;;;;5003392;28;20204;-72
2022/01/12 11:48:40;;;;;;;;;;;5.00;64.00;;;;;;5002934;28;19941;-71
2022/01/12 11:51:06;;;;;;;;;;;5.30;63.30;;;;;;5003268;28;19913;-72
2022/01/12 11:53:32;;;;;;;;;;;5.70;60.00;;;;;;5001843;28;19951;-72
2022/01/12 11:56:15;;;;;;;;;;;5.70;59.90;;;;;;5001892;28;19909;-72
2022/01/12 11:58:53;;;;;;;;;;;5.60;59.70;;;;;;5001253;28;19964;-72
2022/01/12 12:01:19;;;;;;;;;;;5.40;61.30;;;;;;5003657;28;19910;-72
2022/01/12 12:04:01;;;;;;;;;;;5.50;60.90;;;;;;5002087;28;19967;-73
2022/01/12 12:06:27;;;;;;;;;;;5.70;59.40;;;;;;5001634;28;19909;-71
2022/01/12 12:09:13;;;;;;;;;;;5.60;60.80;;;;;;5002379;28;19914;-71
2022/01/12 12:11:39;;;;;;;;;;;6.10;58.90;;;;;;5001550;28;20083;-72
2022/01/12 12:14:07;;;;;;;;;;;6.20;57.40;;;;;;5001475;28;19914;-72
2022/01/12 12:16:34;;;;;;;;;;;6.60;56.40;;;;;;5003753;28;19910;-72
2022/01/12 12:19:01;;;;;;;;;;;6.80;55.40;;;;;;4979273;28;19910;-71
2022/01/12 12:21:27;;;;;;;;;;;6.90;54.70;;;;;;4982806;28;20066;-71
2022/01/12 12:23:52;;;;;;;;;;;6.90;54.90;;;;;;4976887;28;19953;-73
2022/01/12 12:26:18;;;;;;;;;;;7.00;54.90;;;;;;4982402;28;20132;-71
2022/01/12 12:28:55;;;;;;;;;;;7.40;54.00;;;;;;5030124;23;19928;-76
2022/01/12 12:31:22;;;;;;;;;;;8.10;52.20;;;;;;5002287;28;19909;-74
2022/01/12 12:33:58;;;;;;;;;;;7.90;51.80;;;;;;5003658;28;19914;-75
2022/01/12 12:36:24;;;;;;;;;;;7.90;52.10;;;;;;5022935;28;19909;-73
2022/01/12 12:38:50;;;;;;;;;;;7.90;52.50;;;;;;5005631;28;20000;-73
2022/01/12 12:41:15;;;;;;;;;;;8.40;51.40;;;;;;5021673;28;19944;-74
2022/01/12 12:43:41;;;;;;;;;;;9.00;49.80;;;;;;5006026;28;19941;-73
2022/01/12 12:46:11;;;;;;;;;;;9.10;49.80;;;;;;5021917;28;19955;-75
2022/01/12 12:48:37;;;;;;;;;;;9.00;49.60;;;;;;4986170;28;20197;-76
2022/01/12 12:51:05;;;;;;;;;;;9.10;48.60;;;;;;5002218;28;19932;-74
2022/01/12 12:53:38;;;;;;;;;;;9.70;47.80;;;;;;4985925;28;20316;-73
2022/01/12 12:56:06;;;;;;;;;;;10.20;46.60;;;;;;5003067;28;19910;-74
2022/01/12 12:58:32;;;;;;;;;;;10.30;46.00;;;;;;5002096;28;19980;-74
2022/01/12 13:01:12;;;;;;;;;;;10.80;44.60;;;;;;4985594;28;19910;-74
2022/01/12 13:03:39;;;;;;;;;;;10.90;44.60;;;;;;5003208;28;19909;-73
2022/01/12 13:06:05;;;;;;;;;;;10.20;45.30;;;;;;5001829;28;20108;-73
2022/01/12 13:08:31;;;;;;;;;;;9.80;46.20;;;;;;5018248;28;19922;-73
2022/01/12 13:11:07;;;;;;;;;;;9.10;47.10;;;;;;4994503;28;19913;-75
2022/01/12 13:13:32;;;;;;;;;;;8.60;49.00;;;;;;5037827;28;19925;-74
2022/01/12 13:15:58;;;;;;;;;;;8.50;49.40;;;;;;5020587;28;19914;-73
2022/01/12 13:18:24;;;;;;;;;;;7.90;51.50;;;;;;5022390;28;19909;-73
2022/01/12 13:21:07;;;;;;;;;;;7.60;52.50;;;;;;5022965;28;19971;-74
2022/01/12 13:23:47;;;;;;;;;;;7.10;53.40;;;;;;5007626;28;20214;-77
2022/01/12 13:26:15;;;;;;;;;;;7.10;54.60;;;;;;5022288;28;19909;-76
2022/01/12 13:28:43;;;;;;;;;;;6.80;54.70;;;;;;5010368;28;20139;-76
2022/01/12 13:31:14;;;;;;;;;;;6.50;55.90;;;;;;5001027;28;19916;-75
2022/01/12 13:33:42;;;;;;;;;;;6.30;56.40;;;;;;5001630;28;20276;-75
2022/01/12 13:36:21;;;;;;;;;;;6.00;57.40;;;;;;5001257;28;19910;-75
2022/01/12 13:39:07;;;;;;;;;;;5.70;58.90;;;;;;5001592;28;19910;-76
2022/01/12 13:41:52;;;;;;;;;;;5.70;58.70;;;;;;5017669;28;19929;-76
2022/01/12 13:44:19;;;;;;;;;;;5.60;59.20;;;;;;5002457;28;19910;-72
2022/01/12 13:47:22;;;;;;;;;;;5.70;59.20;;;;;;5021783;28;19917;-79
2022/01/12 13:49:48;;;;;;;;;;;5.70;59.40;;;;;;5011323;28;19916;-71
2022/01/12 13:52:13;;;;;;;;;;;5.70;59.60;;;;;;5020184;28;19909;-71
2022/01/12 13:54:41;;;;;;;;;;;5.60;59.80;;;;;;5021104;28;20152;-76
2022/01/12 13:57:09;;;;;;;;;;;5.50;60.40;;;;;;4999193;28;20110;-72
2022/01/12 13:59:45;;;;;;;;;;;5.60;60.50;;;;;;5003481;28;19909;-74
2022/01/12 14:02:15;;;;;;;;;;;5.40;60.90;;;;;;4988788;28;20208;-75
2022/01/12 14:04:45;;;;;;;;;;;5.30;61.30;;;;;;5004438;28;19910;-76
2022/01/12 14:07:21;;;;;;;;;;;5.30;61.70;;;;;;5015514;28;19949;-82
2022/01/12 14:09:54;;;;;;;;;;;5.10;62.10;;;;;;5007713;28;19916;-73
2022/01/12 14:12:19;;;;;;;;;;;4.80;64.00;;;;;;5025699;28;19910;-73
2022/01/12 14:14:57;;;;;;;;;;;4.70;65.00;;;;;;5024354;28;19920;-73
2022/01/12 14:17:42;;;;;;;;;;;4.80;65.30;;;;;;5024440;28;20198;-73
2022/01/12 14:20:20;;;;;;;;;;;4.60;65.60;;;;;;5007450;28;20180;-73
2022/01/12 14:22:58;;;;;;;;;;;4.50;67.10;;;;;;5025885;28;20002;-73
2022/01/12 14:25:48;;;;;;;;;;;4.20;68.70;;;;;;5024873;28;20271;-73
2022/01/12 14:28:17;;;;;;;;;;;4.20;68.70;;;;;;5004215;28;19920;-73
2022/01/12 14:30:45;;;;;;;;;;;4.10;69.90;;;;;;5012591;28;20235;-64
2022/01/12 14:33:11;;;;;;;;;;;4.20;70.50;;;;;;5005893;28;19914;-69
2022/01/12 14:35:37;;;;;;;;;;;4.10;70.70;;;;;;5008613;28;19972;-69
2022/01/12 14:38:03;;;;;;;;;;;4.00;71.10;;;;;;5023817;28;19909;-76
2022/01/12 14:40:28;;;;;;;;;;;4.00;71.20;;;;;;5023605;28;19910;-75
2022/01/12 14:42:56;;;;;;;;;;;4.00;71.50;;;;;;5019837;28;19917;-74
2022/01/12 14:45:32;;;;;;;;;;;4.00;71.70;;;;;;5004139;28;19910;-74
2022/01/12 14:48:00;;;;;;;;;;;3.80;71.70;;;;;;5009884;28;19909;-74
2022/01/12 14:50:27;;;;;;;;;;;3.60;73.20;;;;;;5004934;28;19984;-74
2022/01/12 14:52:54;;;;;;;;;;;3.50;73.20;;;;;;5022755;28;19925;-73
2022/01/12 14:55:20;;;;;;;;;;;3.50;73.80;;;;;;5024183;28;20128;-73
2022/01/12 14:57:46;;;;;;;;;;;3.70;73.00;;;;;;5002043;28;20168;-74
2022/01/12 15:00:17;;;;;;;;;;;3.60;73.10;;;;;;5023716;28;19916;-73
2022/01/12 15:02:43;;;;;;;;;;;3.50;73.80;;;;;;5024192;28;20097;-73
2022/01/12 15:05:09;;;;;;;;;;;3.30;74.70;;;;;;5007612;28;20016;-74
2022/01/12 15:07:35;;;;;;;;;;;3.10;76.30;;;;;;5023612;28;19917;-74
2022/01/12 15:10:06;;;;;;;;;;;2.90;76.90;;;;;;5023330;28;19917;-73
2022/01/12 15:12:37;;;;;;;;;;;3.10;76.80;;;;;;5008254;28;20219;-74
2022/01/12 15:15:08;;;;;;;;;;;3.10;76.50;;;;;;5022295;28;19913;-74
2022/01/12 15:17:34;;;;;;;;;;;2.90;77.30;;;;;;5024438;28;19931;-74
2022/01/12 15:20:02;;;;;;;;;;;2.90;77.80;;;;;;5023291;28;19943;-74
2022/01/12 15:22:27;;;;;;;;;;;2.90;78.20;;;;;;5007605;28;19925;-74
2022/01/12 15:24:53;;;;;;;;;;;2.80;78.20;;;;;;5024636;28;20112;-75
2022/01/12 15:27:19;;;;;;;;;;;2.70;78.70;;;;;;5022268;28;19914;-73
2022/01/12 15:29:45;;;;;;;;;;;2.60;79.20;;;;;;5019051;28;19910;-73
2022/01/12 15:32:10;;;;;;;;;;;2.50;79.70;;;;;;5007099;28;19913;-74
2022/01/12 15:34:36;;;;;;;;;;;2.40;80.00;;;;;;5019192;28;19914;-74
2022/01/12 15:37:03;;;;;;;;;;;2.40;80.50;;;;;;4987609;28;19918;-73
2022/01/12 15:39:29;;;;;;;;;;;2.30;80.90;;;;;;4986909;28;19917;-74
2022/01/12 15:41:54;;;;;;;;;;;2.10;81.80;;;;;;5015344;28;19910;-74
2022/01/12 15:44:20;;;;;;;;;;;2.00;83.20;;;;;;5023933;28;20201;-73
2022/01/12 15:46:48;;;;;;;;;;;1.90;83.90;;;;;;5022213;28;19916;-74
2022/01/12 15:49:14;;;;;;;;;;;1.80;84.00;;;;;;5022437;28;20005;-73
2022/01/12 15:51:39;;;;;;;;;;;1.70;85.00;;;;;;5021841;28;19967;-74